Time;durP1;ratioP1;P1;durP2;ratioP2;P2;SDS_P1;SDS_P2;PMS_P1;PMS_P2;Temp;Humidity;BMP_temperature;BMP_pressure;BME280_temperature;BME280_humidity;BME280_pressure;Samples;Min_cycle;Max_cycle;Signal;HPM_P1;HPM_P2
2023/12/06 00:02:20;;;;;;;0.73;0.30;;;;;;;3.96;100.00;97405.88;5113407;28;20213;-75
2023/12/06 00:04:47;;;;;;;0.37;0.37;;;;;;;3.89;100.00;97407.66;5113684;28;20207;-75
2023/12/06 00:07:13;;;;;;;0.30;0.30;;;;;;;3.92;100.00;97402.81;5113673;28;20223;-75
2023/12/06 00:09:40;;;;;;;0.30;0.30;;;;;;;3.94;100.00;97406.06;5113633;28;20227;-75
2023/12/06 00:12:07;;;;;;;0.40;0.40;;;;;;;3.91;100.00;97410.91;5113598;28;20199;-75
2023/12/06 00:14:33;;;;;;;0.40;0.40;;;;;;;3.91;100.00;97411.72;5113712;28;20211;-75
2023/12/06 00:16:59;;;;;;;0.33;0.33;;;;;;;3.94;100.00;97394.75;5113663;28;20210;-75
2023/12/06 00:19:26;;;;;;;0.30;0.30;;;;;;;3.89;100.00;97411.09;5113272;28;20232;-75
2023/12/06 00:21:52;;;;;;;0.30;0.30;;;;;;;3.88;100.00;97406.84;5113504;28;20298;-75
2023/12/06 00:24:18;;;;;;;0.30;0.30;;;;;;;3.91;100.00;97406.47;5116100;28;20203;-75
2023/12/06 00:26:46;;;;;;;0.30;0.30;;;;;;;3.89;100.00;97405.81;5117192;28;20234;-75
2023/12/06 00:29:12;;;;;;;0.40;0.40;;;;;;;3.89;100.00;97402.41;5117273;28;20227;-75
2023/12/06 00:31:39;;;;;;;0.20;0.20;;;;;;;3.94;100.00;97413.16;5117322;28;20566;-75
2023/12/06 00:34:05;;;;;;;0.40;0.37;;;;;;;3.99;100.00;97416.00;5116836;28;20685;-75
2023/12/06 00:36:31;;;;;;;0.20;0.20;;;;;;;4.02;100.00;97407.75;5116789;28;20556;-75
2023/12/06 00:38:58;;;;;;;0.40;0.30;;;;;;;3.99;100.00;97410.75;5117061;28;20568;-75
2023/12/06 00:41:24;;;;;;;0.30;0.30;;;;;;;4.03;100.00;97422.50;5116731;28;20571;-75
2023/12/06 00:43:53;;;;;;;0.30;0.30;;;;;;;4.03;100.00;97414.63;5116756;28;20213;-75
2023/12/06 00:46:19;;;;;;;0.30;0.30;;;;;;;4.01;100.00;97421.88;5116913;28;20226;-75
2023/12/06 00:48:46;;;;;;;0.30;0.20;;;;;;;4.04;100.00;97426.75;5116626;28;20205;-75
2023/12/06 00:51:12;;;;;;;0.20;0.20;;;;;;;4.05;100.00;97423.13;5116718;28;20202;-75
2023/12/06 00:53:38;;;;;;;0.30;0.30;;;;;;;4.04;100.00;97430.22;5116846;28;20203;-75
2023/12/06 00:56:12;;;;;;;0.30;0.30;;;;;;;4.06;100.00;97430.00;5116786;28;20199;-75
2023/12/06 00:58:38;;;;;;;0.30;0.30;;;;;;;4.06;100.00;97430.81;5116780;28;20215;-75
2023/12/06 01:01:05;;;;;;;0.37;0.37;;;;;;;4.06;100.00;97430.00;5116661;28;20207;-75
2023/12/06 01:03:31;;;;;;;0.30;0.30;;;;;;;4.00;100.00;97425.53;5116688;28;20203;-75
2023/12/06 01:05:58;;;;;;;0.20;0.20;;;;;;;4.00;100.00;97433.41;5116512;28;20219;-75
2023/12/06 01:08:24;;;;;;;0.23;0.23;;;;;;;4.02;100.00;97444.56;5116462;28;20205;-75
2023/12/06 01:10:51;;;;;;;0.23;0.23;;;;;;;4.00;100.00;97442.13;5116360;28;20219;-75
2023/12/06 01:13:18;;;;;;;0.73;0.30;;;;;;;4.03;100.00;97440.94;5116293;28;20568;-75
2023/12/06 01:15:45;;;;;;;0.23;0.23;;;;;;;4.00;100.00;97442.13;5116128;28;20680;-75
2023/12/06 01:18:11;;;;;;;0.30;0.30;;;;;;;4.01;100.00;97443.75;5116269;28;20291;-75
2023/12/06 01:20:38;;;;;;;0.30;0.30;;;;;;;4.02;100.00;97444.56;5115802;28;20241;-75
2023/12/06 01:23:05;;;;;;;0.30;0.30;;;;;;;3.96;100.00;97442.69;5116225;28;20207;-75
2023/12/06 01:25:34;;;;;;;0.20;0.20;;;;;;;3.99;100.00;97444.94;5115904;28;20681;-75
2023/12/06 01:28:00;;;;;;;0.30;0.30;;;;;;;3.97;100.00;97454.84;5116092;28;20226;-75
2023/12/06 01:30:27;;;;;;;0.20;0.20;;;;;;;3.91;100.00;97458.22;5116099;28;20227;-75
2023/12/06 01:32:53;;;;;;;0.27;0.27;;;;;;;3.92;100.00;97462.47;5115985;28;20261;-75
2023/12/06 01:35:20;;;;;;;0.30;0.30;;;;;;;3.97;100.00;97462.75;5115412;28;20207;-75
2023/12/06 01:37:46;;;;;;;0.20;0.20;;;;;;;3.96;100.00;97463.72;5116307;28;20588;-75
2023/12/06 01:40:13;;;;;;;0.30;0.30;;;;;;;3.94;100.00;97465.75;5115726;28;20223;-75
2023/12/06 01:42:39;;;;;;;0.23;0.20;;;;;;;3.89;100.00;97460.25;5115671;28;20199;-75
2023/12/06 01:45:06;;;;;;;0.20;0.20;;;;;;;3.90;100.00;97464.50;5115690;28;20203;-75
2023/12/06 01:47:34;;;;;;;0.20;0.20;;;;;;;3.92;100.00;97475.63;5115629;28;20223;-75
2023/12/06 01:50:03;;;;;;;0.23;0.23;;;;;;;3.89;100.00;97468.13;5115686;28;20291;-75
2023/12/06 01:52:30;;;;;;;0.20;0.20;;;;;;;3.86;100.00;97465.88;5115716;28;20207;-75
2023/12/06 01:54:58;;;;;;;0.20;0.20;;;;;;;3.88;100.00;97469.16;5115415;28;20688;-75
2023/12/06 01:57:31;;;;;;;0.20;0.20;;;;;;;3.86;100.00;97476.41;5115567;28;20649;-75
2023/12/06 01:59:58;;;;;;;0.30;0.30;;;;;;;3.85;100.00;97467.69;5115527;28;20229;-75
2023/12/06 02:02:26;;;;;;;0.20;0.20;;;;;;;3.87;100.00;97473.59;5115518;28;20576;-75
2023/12/06 02:04:52;;;;;;;0.23;0.23;;;;;;;3.88;100.00;97474.41;5115470;28;20567;-75
2023/12/06 02:07:21;;;;;;;0.20;0.20;;;;;;;3.88;100.00;97475.19;5115308;28;20227;-75
2023/12/06 02:09:47;;;;;;;0.23;0.23;;;;;;;3.89;100.00;97476.03;5115345;28;20229;-75
2023/12/06 02:12:13;;;;;;;0.27;0.20;;;;;;;3.87;100.00;97478.84;5115168;28;20216;-75
2023/12/06 02:14:40;;;;;;;0.30;0.30;;;;;;;3.88;100.00;97485.72;5115273;28;20208;-75
2023/12/06 02:17:08;;;;;;;0.30;0.30;;;;;;;3.90;100.00;97478.47;5115236;28;20205;-75
2023/12/06 02:19:35;;;;;;;0.30;0.30;;;;;;;3.94;100.00;97478.88;5113752;28;20231;-75
2023/12/06 02:22:02;;;;;;;0.30;0.30;;;;;;;3.91;100.00;97480.09;5114905;28;20635;-75
2023/12/06 02:24:30;;;;;;;0.50;0.30;;;;;;;3.92;100.00;97475.63;5115094;28;20210;-75
2023/12/06 02:26:58;;;;;;;0.30;0.30;;;;;;;3.94;100.00;97478.88;5114691;28;20227;-75
2023/12/06 02:29:24;;;;;;;0.20;0.20;;;;;;;3.92;100.00;97489.59;5114935;28;20229;-75
2023/12/06 02:31:51;;;;;;;0.20;0.20;;;;;;;3.93;100.00;97479.91;5114931;28;20207;-75
2023/12/06 02:34:25;;;;;;;0.20;0.20;;;;;;;3.92;100.00;97476.44;5114881;28;20292;-75
2023/12/06 02:36:54;;;;;;;0.20;0.20;;;;;;;3.90;100.00;97483.72;5114892;28;20188;-75
2023/12/06 02:39:21;;;;;;;0.50;0.20;;;;;;;3.96;100.00;97480.31;5114419;28;20227;-75
2023/12/06 02:41:47;;;;;;;0.20;0.20;;;;;;;3.95;100.00;97483.97;5114505;28;20207;-75
2023/12/06 02:44:14;;;;;;;0.87;0.20;;;;;;;3.97;100.00;97481.16;5114727;28;20203;-75
2023/12/06 02:46:41;;;;;;;0.20;0.20;;;;;;;4.02;100.00;97484.81;5113766;28;20697;-75
2023/12/06 02:49:07;;;;;;;0.20;0.20;;;;;;;3.96;100.00;97471.59;5114560;28;20230;-75
2023/12/06 02:51:33;;;;;;;0.20;0.20;;;;;;;4.03;100.00;97470.66;5114565;28;20214;-75
2023/12/06 02:54:00;;;;;;;0.20;0.20;;;;;;;4.00;100.00;97475.47;5114522;28;20203;-75
2023/12/06 02:56:26;;;;;;;0.97;0.30;;;;;;;4.06;100.00;97479.97;5114502;28;20195;-75
2023/12/06 02:58:52;;;;;;;1.20;0.20;;;;;;;4.05;100.00;97479.19;5114056;28;20243;-75
2023/12/06 03:01:19;;;;;;;0.20;0.20;;;;;;;4.05;100.00;97487.06;5114058;28;20203;-75
2023/12/06 03:03:45;;;;;;;0.20;0.20;;;;;;;4.09;100.00;97479.59;5114347;28;20203;-75
2023/12/06 03:06:11;;;;;;;0.63;0.20;;;;;;;4.10;100.00;97478.59;5114219;28;20607;-75
2023/12/06 03:08:38;;;;;;;0.20;0.20;;;;;;;4.11;100.00;97481.03;5113923;28;20665;-75
2023/12/06 03:11:04;;;;;;;0.20;0.20;;;;;;;4.15;100.00;97486.72;5114313;28;20577;-75
2023/12/06 03:13:30;;;;;;;0.17;0.17;;;;;;;4.07;100.00;97479.78;5114275;28;20229;-75
2023/12/06 03:15:57;;;;;;;0.20;0.20;;;;;;;4.14;100.00;97485.91;5113946;28;20576;-75
2023/12/06 03:18:24;;;;;;;0.20;0.20;;;;;;;4.22;100.00;97477.06;5113944;27;20696;-75
2023/12/06 03:20:50;;;;;;;0.30;0.30;;;;;;;4.21;100.00;97476.22;5113729;28;20732;-75
2023/12/06 03:23:17;;;;;;;0.20;0.20;;;;;;;4.22;100.00;97482.31;5113833;28;20546;-75
2023/12/06 03:25:44;;;;;;;0.20;0.20;;;;;;;4.24;100.00;97486.38;5113989;28;20547;-75
2023/12/06 03:28:10;;;;;;;0.20;0.20;;;;;;;4.24;100.00;97480.28;5114063;28;20628;-75
2023/12/06 03:30:36;;;;;;;0.20;0.20;;;;;;;4.24;100.00;97485.56;5113954;28;20229;-75
2023/12/06 03:33:03;;;;;;;0.77;0.20;;;;;;;4.21;100.00;97484.13;5113951;28;20199;-75
2023/12/06 03:35:29;;;;;;;0.13;0.13;;;;;;;4.20;100.00;97484.34;5113636;28;20209;-75
2023/12/06 03:37:55;;;;;;;0.20;0.20;;;;;;;4.21;100.00;97489.38;5113615;28;20677;-75
2023/12/06 03:40:22;;;;;;;0.20;0.20;;;;;;;4.15;100.00;97487.53;5113356;28;20234;-74
2023/12/06 03:42:48;;;;;;;0.20;0.20;;;;;;;4.22;100.00;97492.84;5113651;28;20207;-75
2023/12/06 03:45:15;;;;;;;0.20;0.20;;;;;;;4.21;100.00;97485.97;5113485;28;20203;-74
2023/12/06 03:47:41;;;;;;;0.20;0.20;;;;;;;4.19;100.00;97483.50;5113580;28;20223;-75
2023/12/06 03:50:08;;;;;;;0.20;0.20;;;;;;;4.18;100.00;97486.34;5113516;28;20233;-75
2023/12/06 03:52:34;;;;;;;0.20;0.20;;;;;;;4.19;100.00;97490.59;5113561;28;20214;-75
2023/12/06 03:55:00;;;;;;;0.67;0.30;;;;;;;4.18;100.00;97486.34;5113748;28;20203;-75
2023/12/06 03:57:27;;;;;;;0.37;0.20;;;;;;;4.25;100.00;97492.47;5114948;28;20199;-75
2023/12/06 03:59:53;;;;;;;0.20;0.20;;;;;;;4.20;100.00;97492.22;5117786;28;20222;-75
2023/12/06 04:02:19;;;;;;;0.23;0.20;;;;;;;4.22;100.00;97496.28;5117701;28;20209;-75
2023/12/06 04:04:45;;;;;;;0.33;0.20;;;;;;;4.17;100.00;97487.34;5117386;28;20207;-75
2023/12/06 04:07:12;;;;;;;0.20;0.20;;;;;;;4.17;100.00;97496.06;5117539;28;20229;-75
2023/12/06 04:09:38;;;;;;;0.13;0.13;;;;;;;4.21;100.00;97488.59;5117492;28;20234;-75
2023/12/06 04:12:06;;;;;;;0.20;0.20;;;;;;;4.17;100.00;97492.59;5117023;28;20700;-75
2023/12/06 04:14:32;;;;;;;0.20;0.20;;;;;;;4.18;100.00;97486.34;5117508;28;20211;-75
2023/12/06 04:16:59;;;;;;;0.20;0.20;;;;;;;4.13;100.00;97492.19;5117427;28;20203;-75
2023/12/06 04:19:25;;;;;;;0.20;0.20;;;;;;;4.15;100.00;97489.34;5117137;28;20235;-74
2023/12/06 04:21:51;;;;;;;0.20;0.20;;;;;;;4.14;100.00;97491.19;5117164;28;20203;-75
2023/12/06 04:24:18;;;;;;;0.20;0.20;;;;;;;4.15;100.00;97491.97;5116633;28;20207;-75
2023/12/06 04:26:44;;;;;;;0.20;0.20;;;;;;;4.13;100.00;97499.25;5116831;28;20568;-75
2023/12/06 04:29:10;;;;;;;0.30;0.30;;;;;;;4.16;100.00;97509.41;5116594;28;20698;-75
2023/12/06 04:31:37;;;;;;;0.20;0.20;;;;;;;4.18;100.00;97507.38;5116679;28;20653;-75
2023/12/06 04:34:04;;;;;;;0.47;0.20;;;;;;;4.20;100.00;97508.81;5116695;28;20215;-75
2023/12/06 04:36:30;;;;;;;0.20;0.20;;;;;;;4.17;100.00;97522.38;5116765;28;20669;-75
2023/12/06 04:38:57;;;;;;;0.20;0.20;;;;;;;4.18;100.00;97520.53;5116823;28;20227;-75
2023/12/06 04:41:24;;;;;;;0.30;0.30;;;;;;;4.17;100.00;97518.91;5116363;28;20210;-75
2023/12/06 04:43:50;;;;;;;0.20;0.20;;;;;;;4.18;100.00;97517.91;5115752;28;20213;-75
2023/12/06 04:46:16;;;;;;;0.20;0.20;;;;;;;4.17;100.00;97532.06;5116258;28;20208;-75
2023/12/06 04:48:43;;;;;;;0.20;0.20;;;;;;;4.22;100.00;97538.38;5116550;28;20223;-75
2023/12/06 04:51:11;;;;;;;0.20;0.20;;;;;;;4.22;100.00;97535.75;5116024;28;20207;-75
2023/12/06 04:53:37;;;;;;;0.20;0.20;;;;;;;4.27;100.00;97535.16;5116442;28;20206;-75
2023/12/06 04:56:04;;;;;;;0.23;0.23;;;;;;;4.21;100.00;97533.31;5116423;27;20203;-75
2023/12/06 04:58:30;;;;;;;0.20;0.20;;;;;;;4.21;100.00;97538.56;5116663;28;20199;-75
2023/12/06 05:00:56;;;;;;;0.20;0.20;;;;;;;4.16;100.00;97544.38;5116398;28;20203;-75
2023/12/06 05:03:23;;;;;;;0.20;0.20;;;;;;;4.19;100.00;97541.38;5116304;28;20209;-75
2023/12/06 05:05:49;;;;;;;0.20;0.20;;;;;;;4.13;100.00;97536.91;5116222;28;20209;-75
2023/12/06 05:08:16;;;;;;;0.20;0.20;;;;;;;4.14;100.00;97537.69;5116142;28;20219;-75
2023/12/06 05:10:43;;;;;;;0.17;0.17;;;;;;;4.14;100.00;97543.78;5115582;28;20224;-75
2023/12/06 05:13:10;;;;;;;0.20;0.20;;;;;;;4.13;100.00;97533.44;5116276;28;20594;-75
2023/12/06 05:15:36;;;;;;;0.93;0.20;;;;;;;4.18;100.00;97547.66;5116122;28;20221;-75
2023/12/06 05:18:02;;;;;;;0.10;0.10;;;;;;;4.15;100.00;97534.06;5116090;28;20199;-75
2023/12/06 05:20:29;;;;;;;0.30;0.30;;;;;;;4.19;100.00;97549.28;5115507;28;20767;-75
2023/12/06 05:22:55;;;;;;;1.17;0.20;;;;;;;4.18;100.00;97546.84;5115786;28;20214;-75
2023/12/06 05:25:21;;;;;;;0.30;0.30;;;;;;;4.22;100.00;97550.72;5115872;28;20199;-75
2023/12/06 05:27:48;;;;;;;0.30;0.30;;;;;;;4.20;100.00;97563.25;5115127;28;20223;-75
2023/12/06 05:30:14;;;;;;;0.20;0.20;;;;;;;4.20;100.00;97558.00;5115754;28;20227;-75
2023/12/06 05:32:41;;;;;;;0.20;0.20;;;;;;;4.21;100.00;97555.16;5115801;28;20207;-75
2023/12/06 05:35:08;;;;;;;0.20;0.20;;;;;;;4.24;100.00;97551.31;5115650;28;20210;-75
2023/12/06 05:37:34;;;;;;;0.23;0.20;;;;;;;4.25;100.00;97551.13;5115718;28;20221;-75
2023/12/06 05:40:00;;;;;;;0.30;0.30;;;;;;;4.27;100.00;97558.84;5115317;28;20229;-75
2023/12/06 05:42:27;;;;;;;0.30;0.30;;;;;;;4.26;100.00;97552.78;5114738;28;20199;-75
2023/12/06 05:44:53;;;;;;;0.30;0.30;;;;;;;4.22;100.00;97558.59;5114559;28;20199;-75
2023/12/06 05:47:20;;;;;;;0.30;0.30;;;;;;;4.25;100.00;97553.78;5114698;28;20223;-75
2023/12/06 05:49:46;;;;;;;0.40;0.40;;;;;;;4.30;100.00;97561.09;5114974;28;20706;-75
2023/12/06 05:52:12;;;;;;;0.20;0.20;;;;;;;4.33;100.00;97552.81;5115256;28;20202;-75
2023/12/06 05:54:39;;;;;;;0.20;0.20;;;;;;;4.34;100.00;97550.00;5115052;28;20205;-75
2023/12/06 05:57:06;;;;;;;0.20;0.20;;;;;;;4.27;100.00;97558.84;5114820;28;20204;-75
2023/12/06 05:59:32;;;;;;;0.23;0.23;;;;;;;4.23;100.00;97552.34;5114891;28;20284;-75
2023/12/06 06:01:59;;;;;;;0.77;0.30;;;;;;;4.26;100.00;97558.06;5114752;28;20203;-75
2023/12/06 06:04:26;;;;;;;0.20;0.20;;;;;;;4.24;100.00;97551.31;5114394;28;20203;-75
2023/12/06 06:06:52;;;;;;;0.20;0.20;;;;;;;4.21;100.00;97555.16;5114847;28;20210;-75
2023/12/06 06:09:19;;;;;;;0.20;0.20;;;;;;;4.21;100.00;97557.78;5114759;28;20245;-75
2023/12/06 06:11:47;;;;;;;0.20;0.20;;;;;;;4.19;100.00;97557.16;5114949;28;20203;-75
2023/12/06 06:14:14;;;;;;;0.30;0.30;;;;;;;4.19;100.00;97559.81;5114539;28;20239;-75
2023/12/06 06:16:40;;;;;;;0.20;0.20;;;;;;;4.19;100.00;97556.34;5114521;28;20199;-75
2023/12/06 06:19:06;;;;;;;0.23;0.23;;;;;;;4.14;100.00;97567.47;5114674;28;20218;-75
2023/12/06 06:21:33;;;;;;;0.30;0.30;;;;;;;4.18;100.00;97570.50;5113750;28;20188;-75
2023/12/06 06:23:59;;;;;;;0.30;0.30;;;;;;;4.16;100.00;97577.78;5114593;28;20203;-75
2023/12/06 06:26:26;;;;;;;0.20;0.20;;;;;;;4.17;100.00;97564.47;5114248;28;20238;-75
2023/12/06 06:28:52;;;;;;;0.40;0.40;;;;;;;4.21;100.00;97560.41;5114309;28;20233;-75
2023/12/06 06:31:19;;;;;;;0.60;0.40;;;;;;;4.22;100.00;97571.75;5114358;28;20613;-75
2023/12/06 06:33:45;;;;;;;0.50;0.30;;;;;;;4.30;100.00;97567.16;5114453;28;20203;-75
2023/12/06 06:36:11;;;;;;;0.30;0.30;;;;;;;4.25;100.00;97574.81;5114061;28;20670;-75
2023/12/06 06:38:38;;;;;;;0.83;0.30;;;;;;;4.21;100.00;97572.78;5114288;28;20499;-75
2023/12/06 06:41:04;;;;;;;0.40;0.30;;;;;;;4.20;100.00;97574.56;5114060;28;20285;-75
2023/12/06 06:43:31;;;;;;;0.40;0.40;;;;;;;4.24;100.00;97585.53;5113509;28;20669;-75
2023/12/06 06:45:57;;;;;;;0.83;0.30;;;;;;;4.28;100.00;97592.88;5113995;28;20207;-75
2023/12/06 06:48:24;;;;;;;0.40;0.40;;;;;;;4.22;100.00;97579.66;5113869;28;20225;-75
2023/12/06 06:50:51;;;;;;;0.63;0.30;;;;;;;4.27;100.00;97598.31;5113679;28;20230;-75
2023/12/06 06:53:17;;;;;;;0.40;0.40;;;;;;;4.33;100.00;97592.28;5114278;28;20252;-75
2023/12/06 06:55:44;;;;;;;0.50;0.50;;;;;;;4.34;100.00;97594.72;5113862;28;20318;-75
2023/12/06 06:58:11;;;;;;;0.40;0.40;;;;;;;4.33;100.00;97600.16;5114234;28;20294;-75
2023/12/06 07:00:38;;;;;;;0.30;0.30;;;;;;;4.30;100.00;97603.19;5114749;28;20561;-75
2023/12/06 07:03:04;;;;;;;0.30;0.30;;;;;;;4.33;100.00;97611.50;5113813;28;20612;-74
2023/12/06 07:05:32;;;;;;;0.30;0.30;;;;;;;4.42;100.00;97602.47;5114374;28;20222;-75
2023/12/06 07:07:59;;;;;;;0.30;0.30;;;;;;;4.36;100.00;97598.00;5113808;28;20611;-75
2023/12/06 07:10:25;;;;;;;0.30;0.30;;;;;;;4.38;100.00;97613.59;5114118;28;20585;-75
2023/12/06 07:12:52;;;;;;;2.87;0.53;;;;;;;4.35;100.00;97608.69;5114723;28;20199;-75
2023/12/06 07:15:18;;;;;;;1.70;0.40;;;;;;;4.40;100.00;97622.09;5113854;28;20209;-75
2023/12/06 07:17:46;;;;;;;0.87;0.47;;;;;;;4.40;100.00;97616.84;5113450;28;20205;-75
2023/12/06 07:20:13;;;;;;;0.40;0.40;;;;;;;4.42;100.00;97620.06;5113238;28;20239;-75
2023/12/06 07:22:41;;;;;;;0.30;0.30;;;;;;;4.36;100.00;97623.47;5113663;28;20237;-75
2023/12/06 07:25:08;;;;;;;1.43;0.50;;;;;;;4.40;100.00;97619.47;5113755;28;20260;-75
2023/12/06 07:27:34;;;;;;;2.07;0.50;;;;;;;4.41;100.00;97626.34;5113331;28;20207;-75
2023/12/06 07:30:01;;;;;;;0.90;0.40;;;;;;;4.42;100.00;97633.22;5113370;28;20219;-75
2023/12/06 07:32:27;;;;;;;0.57;0.40;;;;;;;4.44;100.00;97633.88;5113116;28;20203;-75
2023/12/06 07:34:53;;;;;;;1.00;0.50;;;;;;;4.45;100.00;97636.31;5113738;28;20203;-75
2023/12/06 07:37:20;;;;;;;1.07;0.30;;;;;;;4.47;100.00;97639.56;5113240;28;20203;-75
2023/12/06 07:39:46;;;;;;;0.33;0.33;;;;;;;4.43;100.00;97643.56;5113676;28;20314;-75
2023/12/06 07:42:12;;;;;;;0.30;0.30;;;;;;;4.44;100.00;97653.09;5113388;28;20203;-75
2023/12/06 07:44:39;;;;;;;0.53;0.40;;;;;;;4.49;100.00;97652.53;5113167;28;20206;-75
2023/12/06 07:47:05;;;;;;;0.30;0.30;;;;;;;4.51;100.00;97653.16;5113258;28;20204;-75
2023/12/06 07:49:31;;;;;;;0.50;0.50;;;;;;;4.51;100.00;97661.03;5113223;28;20237;-75
2023/12/06 07:51:58;;;;;;;0.60;0.60;;;;;;;4.51;100.00;97667.13;5113453;28;20203;-75
2023/12/06 07:54:25;;;;;;;0.40;0.40;;;;;;;4.49;100.00;97673.59;5113179;28;20206;-75
2023/12/06 07:56:51;;;;;;;0.93;0.40;;;;;;;4.54;100.00;97681.72;5112878;28;20207;-75
2023/12/06 07:59:17;;;;;;;0.93;0.50;;;;;;;4.53;100.00;97680.09;5113106;28;20246;-75
2023/12/06 08:01:44;;;;;;;0.87;0.70;;;;;;;4.55;100.00;97684.19;5113222;28;20203;-75
2023/12/06 08:04:10;;;;;;;0.73;0.73;;;;;;;4.59;100.00;97689.88;5113253;28;20237;-75
2023/12/06 08:06:37;;;;;;;1.17;0.70;;;;;;;4.66;100.00;97696.00;5113401;28;20252;-75
2023/12/06 08:09:10;;;;;;;1.13;0.73;;;;;;;4.65;100.00;97699.66;5113467;28;20279;-75
2023/12/06 08:11:37;;;;;;;1.37;1.00;;;;;;;4.68;100.00;97697.44;5113324;28;20240;-75
2023/12/06 08:14:03;;;;;;;1.03;1.00;;;;;;;4.71;100.00;97701.53;5112772;28;20248;-75
2023/12/06 08:16:30;;;;;;;1.50;1.40;;;;;;;4.70;100.00;97699.91;5113901;28;20199;-75
2023/12/06 08:18:56;;;;;;;1.50;1.23;;;;;;;4.75;100.00;97706.19;5112901;28;20299;-74
2023/12/06 08:21:23;;;;;;;2.53;1.90;;;;;;;4.74;100.00;97711.69;5113540;28;20198;-75
2023/12/06 08:23:49;;;;;;;2.30;2.10;;;;;;;4.68;100.00;97721.16;5113305;28;20306;-75
2023/12/06 08:26:16;;;;;;;2.67;2.20;;;;;;;4.66;100.00;97717.06;5113258;28;20290;-75
2023/12/06 08:28:43;;;;;;;2.83;2.63;;;;;;;4.66;100.00;97728.41;5112786;28;20243;-75
2023/12/06 08:31:09;;;;;;;3.23;2.93;;;;;;;4.64;100.00;97732.22;5112954;28;20199;-75
2023/12/06 08:33:36;;;;;;;3.83;3.53;;;;;;;4.64;100.00;97732.22;5112744;28;20210;-75
2023/12/06 08:36:02;;;;;;;4.27;3.87;;;;;;;4.64;100.00;97729.59;5112740;28;20210;-75
2023/12/06 08:38:29;;;;;;;4.00;3.70;;;;;;;4.66;100.00;97743.41;5113547;28;20577;-75
2023/12/06 08:40:56;;;;;;;4.03;3.73;;;;;;;4.67;100.00;97735.31;5112952;28;20205;-75
2023/12/06 08:43:22;;;;;;;4.90;4.50;;;;;;;4.56;100.00;97742.91;5112746;28;20205;-75
2023/12/06 08:45:48;;;;;;;4.63;4.33;;;;;;;4.56;100.00;97748.19;5115875;28;20203;-75
2023/12/06 08:48:15;;;;;;;5.17;4.73;;;;;;;4.55;100.00;97751.78;5116613;28;20230;-75
2023/12/06 08:50:41;;;;;;;5.50;5.00;;;;;;;4.45;100.00;97749.50;5116272;28;20234;-75
2023/12/06 08:53:08;;;;;;;5.63;5.00;;;;;;;4.44;100.00;97760.19;5116116;28;20199;-75
2023/12/06 08:55:35;;;;;;;5.60;5.10;;;;;;;4.40;100.00;97769.47;5116480;28;20206;-75
2023/12/06 08:58:01;;;;;;;6.50;5.90;;;;;;;4.40;100.00;97761.56;5116776;28;20199;-75
2023/12/06 09:00:27;;;;;;;6.23;5.63;;;;;;;4.35;100.00;97759.53;5115978;28;20728;-74
2023/12/06 09:02:54;;;;;;;5.33;4.83;;;;;;;4.30;100.00;97763.69;5116182;28;20218;-75
2023/12/06 09:05:20;;;;;;;6.60;6.00;;;;;;;4.33;100.00;97769.41;5116138;28;20203;-75
2023/12/06 09:07:47;;;;;;;6.30;5.70;;;;;;;4.33;100.00;97765.94;5115906;28;20686;-75
2023/12/06 09:10:13;;;;;;;7.30;6.07;;;;;;;4.27;100.00;97767.53;5116273;28;20234;-75
2023/12/06 09:12:39;;;;;;;6.93;6.27;;;;;;;4.26;100.00;97767.72;5116210;28;20206;-75
2023/12/06 09:15:06;;;;;;;6.70;6.10;;;;;;;4.27;100.00;97778.03;5116138;28;20203;-75
2023/12/06 09:17:34;;;;;;;6.97;6.27;;;;;;;4.27;100.00;97771.97;5116014;28;20205;-74
2023/12/06 09:20:00;;;;;;;6.47;5.77;;;;;;;4.26;100.00;97779.06;5115452;28;20231;-75
2023/12/06 09:22:27;;;;;;;7.17;6.47;;;;;;;4.24;100.00;97790.75;5116007;28;20210;-75
2023/12/06 09:24:53;;;;;;;7.23;6.60;;;;;;;4.25;100.00;97789.75;5115954;28;20209;-75
2023/12/06 09:27:19;;;;;;;7.40;6.80;;;;;;;4.21;100.00;97791.13;5115476;28;20669;-75
2023/12/06 09:29:46;;;;;;;7.43;6.73;;;;;;;4.22;100.00;97798.00;5115405;28;20231;-75
2023/12/06 09:32:12;;;;;;;8.17;7.47;;;;;;;4.25;100.00;97803.72;5115457;28;20272;-75
2023/12/06 09:34:40;;;;;;;7.93;7.23;;;;;;;4.19;100.00;97803.63;5115401;28;20205;-75
2023/12/06 09:37:09;;;;;;;6.90;6.30;;;;;;;4.18;100.00;97805.47;5115299;27;20230;-75
2023/12/06 09:39:36;;;;;;;7.70;6.93;;;;;;;4.23;100.00;97810.16;5115427;28;20226;-75
2023/12/06 09:42:03;;;;;;;7.00;6.30;;;;;;;4.20;100.00;97811.34;5115770;28;20261;-75
2023/12/06 09:44:31;;;;;;;8.00;7.27;;;;;;;4.19;100.00;97811.53;5115121;27;20200;-75
2023/12/06 09:46:59;;;;;;;8.07;7.27;;;;;;;4.19;100.00;97809.72;5115531;28;20238;-75
2023/12/06 09:49:26;;;;;;;8.87;7.17;;;;;;;4.22;100.00;97808.53;5115390;28;20269;-75
2023/12/06 09:51:52;;;;;;;6.87;6.27;;;;;;;4.19;100.00;97808.91;5115183;28;20688;-75
2023/12/06 09:54:18;;;;;;;7.77;7.07;;;;;;;4.16;100.00;97804.81;5115317;28;20213;-75
2023/12/06 09:56:45;;;;;;;7.83;6.97;;;;;;;4.20;100.00;97824.50;5115273;28;20207;-75
2023/12/06 09:59:12;;;;;;;11.07;7.67;;;;;;;4.20;100.00;97813.97;5115147;28;20347;-75
2023/12/06 10:01:38;;;;;;;8.87;7.90;;;;;;;4.22;100.00;97816.44;5115361;28;20199;-75
2023/12/06 10:04:04;;;;;;;8.13;7.23;;;;;;;4.20;100.00;97813.97;5115392;28;20203;-75
2023/12/06 10:06:31;;;;;;;7.50;6.80;;;;;;;4.23;100.00;97820.69;5114626;28;20203;-75
2023/12/06 10:08:58;;;;;;;9.23;7.93;;;;;;;4.27;100.00;97825.41;5114873;28;20233;-75
2023/12/06 10:11:25;;;;;;;7.80;7.10;;;;;;;4.25;100.00;97823.97;5114897;28;20199;-76
2023/12/06 10:13:53;;;;;;;8.20;7.13;;;;;;;4.28;100.00;97828.84;5114498;28;20666;-76
2023/12/06 10:16:21;;;;;;;6.70;6.10;;;;;;;4.39;100.00;97833.63;5114927;28;20211;-75
2023/12/06 10:18:52;;;;;;;8.20;7.13;;;;;;;4.25;100.00;97830.03;5115010;28;20205;-75
2023/12/06 10:21:19;;;;;;;8.43;7.63;;;;;;;4.24;100.00;97835.47;5115384;28;20192;-76
2023/12/06 10:23:57;;;;;;;7.73;7.03;;;;;;;4.29;100.00;97833.13;5114710;28;20257;-75
2023/12/06 10:26:26;;;;;;;8.23;7.43;;;;;;;4.32;100.00;97838.00;5114700;28;20211;-76
2023/12/06 10:28:54;;;;;;;7.20;6.53;;;;;;;4.31;100.00;97837.19;5114527;28;20238;-75
2023/12/06 10:31:21;;;;;;;7.47;6.77;;;;;;;4.32;100.00;97840.63;5114242;28;20210;-75
2023/12/06 10:33:57;;;;;;;8.00;7.30;;;;;;;4.37;100.00;97849.59;5114640;28;20210;-76
2023/12/06 10:36:26;;;;;;;7.87;7.17;;;;;;;4.32;100.00;97845.88;5113393;28;20200;-75
2023/12/06 10:38:55;;;;;;;10.60;7.73;;;;;;;4.30;100.00;97842.63;5114187;28;20588;-76
2023/12/06 10:41:23;;;;;;;8.60;6.37;;;;;;;4.31;100.00;97842.47;5114344;28;20214;-76
2023/12/06 10:43:52;;;;;;;10.60;6.80;;;;;;;4.31;100.00;97844.25;5114568;28;20245;-76
2023/12/06 10:46:20;;;;;;;8.40;6.37;;;;;;;4.32;100.00;97836.19;5114006;28;20206;-75
2023/12/06 10:48:48;;;;;;;7.30;6.60;;;;;;;4.29;100.00;97843.66;5114009;28;20223;-75
2023/12/06 10:51:16;;;;;;;6.87;6.23;;;;;;;4.40;100.00;97843.16;5113855;28;20202;-75
2023/12/06 10:53:44;;;;;;;8.93;6.03;;;;;;;4.36;100.00;97849.78;5114216;28;20207;-76
2023/12/06 10:56:11;;;;;;;6.37;5.87;;;;;;;4.40;100.00;97837.91;5113792;28;20199;-76
2023/12/06 10:58:39;;;;;;;6.20;5.60;;;;;;;4.44;100.00;97839.16;5113691;28;20684;-75
2023/12/06 11:01:06;;;;;;;6.70;6.10;;;;;;;4.43;100.00;97848.06;5113747;28;20203;-75
2023/12/06 11:03:33;;;;;;;6.43;5.93;;;;;;;4.39;100.00;97849.44;5114135;28;20573;-75
2023/12/06 11:06:11;;;;;;;6.50;5.83;;;;;;;4.31;100.00;97852.16;5113883;28;20226;-75
2023/12/06 11:08:40;;;;;;;6.87;6.23;;;;;;;4.35;100.00;97849.00;5113376;28;20219;-76
2023/12/06 11:11:40;;;;;;;6.47;5.87;;;;;;;4.29;100.00;97857.59;5113838;28;20206;-75
2023/12/06 11:14:30;;;;;;;6.00;5.40;;;;;;;4.38;100.00;97856.50;5113830;28;20183;-75
2023/12/06 11:17:12;;;;;;;6.40;5.80;;;;;;;4.37;100.00;97848.78;5113574;28;20278;-76
2023/12/06 11:19:39;;;;;;;6.30;5.80;;;;;;;4.39;100.00;97846.78;5113459;28;20223;-76
2023/12/06 11:22:04;;;;;;;6.13;5.27;;;;;;;4.40;100.00;97853.69;5113772;28;20207;-75
2023/12/06 11:24:31;;;;;;;8.57;6.30;;;;;;;4.41;100.00;97850.03;5113683;28;20570;-76
2023/12/06 11:26:58;;;;;;;6.27;5.67;;;;;;;4.43;100.00;97856.75;5113492;28;20624;-76
2023/12/06 11:29:25;;;;;;;6.33;5.73;;;;;;;4.37;100.00;97856.69;5112697;28;20768;-75
2023/12/06 11:32:00;;;;;;;6.23;5.63;;;;;;;4.35;100.00;97854.25;5113712;28;20203;-76
2023/12/06 11:34:37;;;;;;;6.83;5.60;;;;;;;4.35;100.00;97858.69;5113032;28;20211;-75